• Join FlightAware (Why Join?)
  • Login
  • US Flag 
02:32PM EDT


 

Airport Tracker/Info


-or-


 

Live Flight TrackerFlight Track Log ✈ SWA311 ✈ 11/04/2013 ✈ KAUS - KHOU

Flight Track Log - Related Links

Times and Time Zones

All times are in EDT time to prevent confusion due to time zone crossing. See the SWA311 flight status page for this flight to view local times or setup timezone preferences in your user account.

Time Position Orientation Groundspeed Altitude Reporting Facility
EDT Latitude Longitude Course Direction KTS MPH feet Rate Location/Type
05:34PM 30.3061 -97.4686 70° East 285 328 9,500  Level Houston Center
05:35PM 30.3167 -97.3583 84° East 340 391 12,300 3,240 Climbing Houston Center
05:36PM 30.3350 -97.2167 81° East 378 435 16,300 3,720 Climbing Houston Center
05:37PM 30.3513 -97.2091 99° East  Level FlightAware Approximate
05:37PM 30.3892 -97.1075 60° Northeast 393 452 20,000  Level Houston Center
05:38PM 30.3500 -97.1113 90° East  Level FlightAware Approximate
05:38PM 30.4719 -97.0231 41° Northeast 392 451 21,000  Level Houston Center
05:39PM 30.5628 -96.9322 41° Northeast 426 490 21,000  Level Houston Center
05:40PM 30.6353 -96.8225 52° Northeast 452 520 21,000  Level Houston Center
05:41PM 30.5783 -96.6983 118° Southeast 448 516 21,000 -960 Level Houston Center
05:42PM 30.4878 -96.5806 132° Southeast 416 479 19,100 -1,920 Descending Houston Center
05:43PM 30.4139 -96.4811 131° Southeast 404 465 17,100 -2,040 Descending Houston Center
05:44PM 30.3622 -96.3719 119° Southeast 396 456 15,000 -2,040 Descending Houston Center
05:45PM 30.2947 -96.2781 130° Southeast 376 433 12,900 -1,860 Descending Houston Center
05:46PM 30.2136 -96.2128 145° Southeast 355 409 11,100 -1,500 Descending Houston Center
05:46PM 30.1858 -96.1958 152° Southeast 328 377 11,000 -420 Descending Houston Center
05:47PM 30.1331 -96.1675 155° Southeast 321 369 10,700 -600 Descending Houston Center
05:47PM 30.1069 -96.1542 156° South 312 359 10,400 -720 Descending Houston Center
05:48PM 30.0528 -96.1256 155° Southeast 314 361 10,000 -240 Descending Houston Center
05:49PM 29.9725 -96.0817 155° Southeast 318 366 10,000 -360 Level Houston Center
05:50PM 29.8781 -96.0272 153° Southeast 317 365 9,300 -900 Descending Houston Center
05:51PM 29.8086 -95.9325 130° Southeast 311 358 8,100 -1,020 Descending Houston Center
05:52PM 29.7617 -95.8719 132° Southeast 312 359 7,300 -1,020 Descending Houston Center
05:53PM 29.7444 -95.8461 128° Southeast 308 354 7,000 -1,020 Descending Houston Center
05:53PM 29.7072 -95.7972 131° Southeast 308 354 6,300 -1,020 Descending Houston Center
05:54PM 29.6897 -95.7731 130° Southeast 302 348 6,000 -300 Descending Houston Center
05:54PM 29.6539 -95.7250 131° Southeast 300 345 6,000  Level Houston Center
05:55PM 29.6003 -95.6533 131° Southeast 298 343 6,000 -180 Level Houston Center
05:56PM 29.5489 -95.5667 124° Southeast 296 341 5,700 -780 Descending Houston Center
05:58PM 29.5503 -95.4894 89° East 259 298 4,500 -1,020 Descending Houston Center
05:59PM 29.5497 -95.4075 90° East 193 222 3,500 -960 Descending Houston Center
06:00PM 29.5617 -95.3714 69° East 196 226 2,600 -1,080 Descending Houston Center
06:01PM 29.5953 -95.3325 45° Northeast 140 161 1,300 -960 Descending Houston Center
06:02PM 29.6183 -95.3089 42° Northeast 146 168 700 -600 Descending Houston Center
06:03PM 29.6500 -95.2736 44° Northeast 142 163 200 -540 Descending Houston Center
06:05PM 29.6454 -95.2789 180° South  Level Estimated